CYNE

Norway House Airport

Norway House, Manitoba, Canada
METAR CYNE 211300Z AUTO 11007KT 9SM OVC070 16/12 A3021 RMK SLP236
Observed Flight Rules
Jul-21 @ 13:00 UTC (53 minutes ago) Visual Flight Rules
Wind Visibility Clouds
110° at 7 knots 9 miles
  • Overcast at 7,000' AGL
Temperatures Readings
Current 16°C / 61°F
Dewpoint 12°C / 54°F
Humidity 77%
Altimeter 30.21" Hg
Pressure 1023.6 hPa
Elevation 223
METAR CYNE 211300Z AUTO 11007KT 9SM OVC070 16/12 A3021 RMK SLP236
Observed Flight Rules
Jul-21 @ 13:00 UTC
(53 minutes ago)
VFR
Wind Visibility
110° at 7 knots 9 miles
Clouds
  • Overcast at 7,000' AGL
Temperature Dewpoint
16°C / 61°F 12°C / 54°F
Humidity Altimeter Pressure
77% 30.21" Hg 1023.6 hPa